Easter Island, Chile
Current Conditions -  °F | °C
As of 2:00 PM on Friday 24 Oct 2014 (Local Time) from SCIP Reporting Station
Scattered Clouds Scattered Clouds  
Wind Chill: 19°   Ceiling: Unl
Heat Index: 19°   Visibility: 6mi
Dew Point:   Wind: 14mph
Humidity: 49%   Direction: 90°E
Pressure: 30.24"   Gusts: NA
Location:  27.12°S, 109.37°W
Report Text: SCIP 242000Z 09012KT 040V130 9999 SCT020 19/08 Q1024 NOSIG
Loading
Personal Weather Stations






























Interactive Weather Map New forecast layout! Learn more

10-Day Weather Forecast

Advertisements
Track Severe Weather on mobile